Time;durP1;ratioP1;P1;durP2;ratioP2;P2;SDS_P1;SDS_P2;PMS_P1;PMS_P2;Temp;Humidity;BMP_temperature;BMP_pressure;BME280_temperature;BME280_humidity;BME280_pressure;Samples;Min_cycle;Max_cycle;Signal;HPM_P1;HPM_P2
2022/01/22 00:02:15;;;;;;;5.07;2.75;;;2.80;99.90;;;;;;5108474;28;20417;-60
2022/01/22 00:05:40;;;;;;;6.40;2.72;;;2.80;99.90;;;;;;5106423;28;20506;-60
2022/01/22 00:09:06;;;;;;;3.15;1.90;;;2.80;99.90;;;;;;5104576;28;20042;-60
2022/01/22 00:15:41;;;;;;;3.40;1.98;;;2.90;99.90;;;;;;5091381;28;20039;-61
2022/01/22 00:19:03;;;;;;;3.03;2.08;;;2.90;99.90;;;;;;5105102;28;20504;-60
2022/01/22 00:22:31;;;;;;;2.63;1.80;;;2.90;99.90;;;;;;5107435;28;20081;-60
2022/01/22 00:25:52;;;;;;;2.13;1.80;;;2.90;99.90;;;;;;5095097;28;20055;-60
2022/01/22 00:29:18;;;;;;;2.38;2.03;;;2.90;99.90;;;;;;5103216;28;20379;-59
2022/01/22 00:32:43;;;;;;;2.13;1.70;;;3.00;99.90;;;;;;5108009;28;20081;-60
2022/01/22 00:36:08;;;;;;;3.10;2.08;;;3.00;99.90;;;;;;5104131;28;20498;-60
2022/01/22 00:39:28;;;;;;;2.08;1.60;;;3.00;99.90;;;;;;5100336;28;20047;-60
2022/01/22 00:41:53;;;;;;;2.38;1.50;;;3.10;99.90;;;;;;5076847;28;20035;-60
2022/01/22 00:44:18;;;;;;;3.42;2.15;;;3.10;99.90;;;;;;5093736;28;20043;-60
2022/01/22 00:46:44;;;;;;;4.45;2.15;;;3.10;99.90;;;;;;5102138;28;20017;-60
2022/01/22 00:49:09;;;;;;;3.22;2.20;;;3.10;99.90;;;;;;5099934;28;20792;-60
2022/01/22 00:51:35;;;;;;;2.20;1.65;;;3.10;99.90;;;;;;5104291;28;20490;-60
2022/01/22 00:54:01;;;;;;;2.67;1.98;;;3.10;99.90;;;;;;5107072;28;20034;-60
2022/01/22 00:56:26;;;;;;;2.13;1.77;;;3.10;99.90;;;;;;5092141;28;20035;-60
2022/01/22 00:58:52;;;;;;;2.15;1.95;;;3.10;99.90;;;;;;5107164;28;20043;-60
2022/01/22 01:01:18;;;;;;;3.15;1.98;;;3.10;99.90;;;;;;5093151;28;20927;-60
2022/01/22 01:03:43;;;;;;;1.90;1.48;;;3.00;99.90;;;;;;5107597;28;20043;-60
2022/01/22 01:06:09;;;;;;;2.40;1.80;;;3.10;99.90;;;;;;5094744;28;20019;-60
2022/01/22 01:08:35;;;;;;;2.53;1.73;;;3.10;99.90;;;;;;5104234;28;20036;-61
2022/01/22 01:11:03;;;;;;;2.55;1.98;;;3.10;99.90;;;;;;5086279;28;20028;-60
2022/01/22 01:13:32;;;;;;;3.50;2.13;;;3.10;99.90;;;;;;5107138;28;20038;-60
2022/01/22 01:16:14;;;;;;;4.65;2.35;;;3.10;99.90;;;;;;5087639;28;20507;-60
2022/01/22 01:32:25;;;;;;;1.83;1.50;;;2.90;99.90;;;;;;5099899;28;20204;-60
2022/01/22 01:34:51;;;;;;;2.95;1.80;;;2.90;99.90;;;;;;5101327;28;20498;-60
2022/01/22 01:37:17;;;;;;;3.92;2.20;;;2.90;99.90;;;;;;5092146;28;20036;-60
2022/01/22 01:39:46;;;;;;;2.90;2.28;;;2.90;99.90;;;;;;5105334;28;20307;-60
2022/01/22 01:42:18;;;;;;;1.90;1.75;;;3.00;99.90;;;;;;5095203;28;20061;-60
2022/01/22 01:44:44;;;;;;;2.47;2.08;;;3.00;99.90;;;;;;5095562;28;20032;-59
2022/01/22 01:47:12;;;;;;;2.72;2.00;;;3.00;99.90;;;;;;5098389;28;20035;-60
2022/01/22 01:49:38;;;;;;;2.50;1.85;;;3.00;99.90;;;;;;5104453;28;20541;-59
2022/01/22 01:52:07;;;;;;;2.03;1.75;;;3.00;99.90;;;;;;5087266;28;20036;-60
2022/01/22 01:54:58;;;;;;;2.85;1.70;;;3.00;99.90;;;;;;5103263;28;20439;-61
2022/01/22 01:57:38;;;;;;;2.47;1.83;;;3.00;99.90;;;;;;5082958;28;20438;-61
2022/01/22 02:00:25;;;;;;;4.28;2.00;;;3.00;99.90;;;;;;5100724;28;20185;-60
2022/01/22 02:02:51;;;;;;;2.58;1.90;;;3.00;99.90;;;;;;5097626;28;20104;-60
2022/01/22 02:05:20;;;;;;;3.13;2.42;;;2.90;99.90;;;;;;5089627;28;20397;-60
2022/01/22 02:07:46;;;;;;;3.42;2.33;;;2.90;99.90;;;;;;5091292;28;20475;-60
2022/01/22 02:10:18;;;;;;;3.30;1.60;;;3.00;99.90;;;;;;5101248;28;20078;-60
2022/01/22 02:23:34;;;;;;;2.00;1.70;;;3.00;99.90;;;;;;5105789;28;20068;-61
2022/01/22 02:25:59;;;;;;;4.25;2.30;;;2.90;99.90;;;;;;5088626;28;20024;-60
2022/01/22 02:28:25;;;;;;;2.30;1.92;;;2.90;99.90;;;;;;5106463;28;20034;-60
2022/01/22 02:30:57;;;;;;;3.50;2.17;;;2.90;99.90;;;;;;5109938;28;20407;-60
2022/01/22 02:38:19;;;;;;;5.40;3.65;;;3.00;99.90;;;;;;5093828;28;20031;-60
2022/01/22 02:40:47;;;;;;;3.03;2.25;;;3.00;99.90;;;;;;5112930;28;20407;-60
2022/01/22 02:43:14;;;;;;;2.70;1.90;;;3.00;99.90;;;;;;5107112;28;20129;-61
2022/01/22 02:45:42;;;;;;;4.05;2.55;;;3.00;99.90;;;;;;5112755;28;20523;-60
2022/01/22 02:48:07;;;;;;;2.85;2.13;;;2.90;99.90;;;;;;5094708;28;20113;-61
2022/01/22 02:50:33;;;;;;;3.88;2.58;;;2.90;99.90;;;;;;5112127;28;20074;-61
2022/01/22 02:53:04;;;;;;;3.85;2.80;;;2.90;99.90;;;;;;5110736;28;20031;-60
2022/01/22 02:55:29;;;;;;;5.47;3.13;;;2.80;99.90;;;;;;5112608;28;20036;-61
2022/01/22 02:57:55;;;;;;;3.80;2.88;;;2.80;99.90;;;;;;5096091;28;20032;-61
2022/01/22 03:00:22;;;;;;;3.78;2.85;;;2.80;99.90;;;;;;5111988;28;20062;-61
2022/01/22 03:02:49;;;;;;;3.95;2.55;;;2.80;99.90;;;;;;5110582;28;20108;-60
2022/01/22 03:05:15;;;;;;;5.72;3.20;;;2.70;99.90;;;;;;5112760;28;20050;-60
2022/01/22 03:07:43;;;;;;;3.40;2.40;;;2.60;99.90;;;;;;5098045;28;20027;-60
2022/01/22 03:10:09;;;;;;;4.50;3.00;;;2.60;99.90;;;;;;5112022;28;20024;-60
2022/01/22 03:15:35;;;;;;;4.05;2.55;;;2.40;99.90;;;;;;5112401;28;20046;-61
2022/01/22 03:18:17;;;;;;;3.63;2.47;;;2.20;99.90;;;;;;5105469;28;20080;-60
2022/01/22 03:29:03;;;;;;;7.05;2.78;;;1.80;99.90;;;;;;5092067;28;20050;-60
2022/01/22 03:31:29;;;;;;;3.83;2.65;;;1.70;99.90;;;;;;5092470;28;20039;-60
2022/01/22 03:33:54;;;;;;;5.95;2.90;;;1.70;99.90;;;;;;5111973;28;20028;-60
2022/01/22 03:36:20;;;;;;;8.10;3.17;;;1.70;99.90;;;;;;5109763;28;20040;-60
2022/01/22 03:38:47;;;;;;;7.35;2.60;;;1.70;99.90;;;;;;5112051;28;20055;-60
2022/01/22 03:41:13;;;;;;;6.43;3.47;;;1.80;99.90;;;;;;5109208;28;20040;-59
2022/01/22 03:43:38;;;;;;;8.35;3.03;;;1.90;99.90;;;;;;5104428;28;20031;-60
2022/01/22 03:46:04;;;;;;;4.63;2.80;;;1.90;99.90;;;;;;5111817;28;20039;-60
2022/01/22 03:48:30;;;;;;;7.95;3.13;;;1.90;99.90;;;;;;5109864;28;20487;-60
2022/01/22 03:50:56;;;;;;;8.27;2.78;;;1.90;99.90;;;;;;5111590;28;20028;-60
2022/01/22 03:53:21;;;;;;;5.55;2.80;;;1.80;99.90;;;;;;5091493;28;20178;-60
2022/01/22 03:56:02;;;;;;;6.90;3.17;;;1.80;99.90;;;;;;5110765;28;20027;-60
2022/01/22 03:58:28;;;;;;;4.80;2.97;;;1.70;99.90;;;;;;5109963;28;20035;-60
2022/01/22 04:01:12;;;;;;;7.72;2.78;;;1.70;99.90;;;;;;5111631;28;20062;-60
2022/01/22 04:03:41;;;;;;;6.88;3.10;;;1.70;99.90;;;;;;5091074;28;20412;-59
2022/01/22 04:06:36;;;;;;;5.95;3.00;;;1.60;99.90;;;;;;5111110;28;20506;-60
2022/01/22 04:08:58;;;;;;;6.22;3.20;;;1.70;99.90;;;;;;5111411;28;20051;-60
2022/01/22 04:11:23;;;;;;;6.03;2.83;;;1.80;99.90;;;;;;5109089;28;20479;-60
2022/01/22 04:13:52;;;;;;;7.47;2.90;;;1.80;99.90;;;;;;5111284;28;20031;-60
2022/01/22 04:16:18;;;;;;;4.88;2.97;;;1.90;99.90;;;;;;5109062;28;20462;-60
2022/01/22 04:27:00;;;;;;;3.97;2.58;;;2.00;99.90;;;;;;5095290;28;20046;-60
2022/01/22 04:29:27;;;;;;;5.60;2.45;;;2.00;99.90;;;;;;5110998;28;20031;-60
2022/01/22 04:31:53;;;;;;;3.92;2.20;;;1.80;99.90;;;;;;5108646;28;20032;-60
2022/01/22 04:34:19;;;;;;;4.47;1.92;;;1.70;99.90;;;;;;5110795;28;20034;-61
2022/01/22 04:36:44;;;;;;;8.32;2.60;;;1.60;99.90;;;;;;5108855;28;20024;-60
2022/01/22 04:39:10;;;;;;;4.15;2.33;;;1.50;99.90;;;;;;5110678;28;20031;-59
2022/01/22 04:41:36;;;;;;;5.88;2.35;;;1.50;99.90;;;;;;5108411;28;20153;-60
2022/01/22 04:44:04;;;;;;;6.43;2.67;;;1.50;99.90;;;;;;5103313;28;20040;-60
2022/01/22 04:57:03;;;;;;;4.72;2.22;;;1.20;99.90;;;;;;5105504;28;20034;-60
2022/01/22 05:00:29;;;;;;;10.30;2.50;;;1.10;99.90;;;;;;5090261;28;20032;-60
2022/01/22 05:03:54;;;;;;;4.60;2.20;;;1.10;99.90;;;;;;5106753;28;20028;-60
2022/01/22 05:07:19;;;;;;;3.78;2.13;;;1.00;99.90;;;;;;5102593;28;20058;-59
2022/01/22 05:10:45;;;;;;;7.10;2.53;;;0.90;99.90;;;;;;5089802;28;20113;-61
2022/01/22 05:14:10;;;;;;;5.68;2.70;;;0.90;99.90;;;;;;5104429;28;20486;-60
2022/01/22 05:17:38;;;;;;;8.07;2.40;;;1.00;99.90;;;;;;5106141;28;20040;-60
2022/01/22 05:21:08;;;;;;;9.15;3.05;;;1.00;99.90;;;;;;5089040;28;20048;-60
2022/01/22 05:24:30;;;;;;;6.38;2.97;;;1.10;99.90;;;;;;5105850;28;20059;-60
2022/01/22 05:28:03;;;;;;;8.15;3.13;;;1.10;99.90;;;;;;5100915;28;20111;-60
2022/01/22 05:31:33;;;;;;;10.35;3.13;;;1.10;99.90;;;;;;5099752;28;20513;-60
2022/01/22 05:38:09;;;;;;;7.20;3.65;;;1.20;99.90;;;;;;5099417;28;20088;-60
2022/01/22 05:41:34;;;;;;;10.40;2.40;;;1.20;99.90;;;;;;5103595;28;20067;-60
2022/01/22 05:45:00;;;;;;;5.50;2.65;;;1.10;99.90;;;;;;5100303;28;20054;-60
2022/01/22 05:48:25;;;;;;;6.30;2.45;;;1.10;99.90;;;;;;5101853;28;20040;-59
2022/01/22 05:51:53;;;;;;;5.22;2.80;;;1.00;99.90;;;;;;5101722;28;20028;-60
2022/01/22 05:59:35;;;;;;;7.60;2.22;;;1.10;99.90;;;;;;5108928;28;20448;-60
2022/01/22 06:02:17;;;;;;;6.85;2.10;;;0.90;99.90;;;;;;5085410;28;20093;-60
2022/01/22 06:05:42;;;;;;;9.38;2.53;;;0.80;99.90;;;;;;5104855;28;20040;-60
2022/01/22 06:09:09;;;;;;;3.25;1.90;;;0.80;99.90;;;;;;5103441;28;20039;-60
2022/01/22 06:12:45;;;;;;;6.70;2.53;;;0.70;99.90;;;;;;5106182;28;20039;-60
2022/01/22 06:16:04;;;;;;;9.45;2.35;;;0.70;99.90;;;;;;5100040;28;20103;-60
2022/01/22 06:19:30;;;;;;;5.57;2.22;;;0.60;99.90;;;;;;5107037;28;20032;-60
2022/01/22 06:22:55;;;;;;;5.30;2.47;;;0.50;99.90;;;;;;5088925;28;20038;-60
2022/01/22 06:26:20;;;;;;;4.72;2.08;;;0.60;99.90;;;;;;5105235;28;20054;-60
2022/01/22 06:29:46;;;;;;;6.22;1.70;;;0.50;99.90;;;;;;5103416;28;20536;-60
2022/01/22 06:33:11;;;;;;;6.25;1.70;;;0.20;99.90;;;;;;5088725;28;20123;-60
2022/01/22 06:36:36;;;;;;;7.68;1.88;;;0.00;99.90;;;;;;5098256;28;20043;-60
2022/01/22 06:43:10;;;;;;;8.38;2.55;;;-0.20;99.90;;;;;;5096073;28;20101;-60
2022/01/22 06:46:35;;;;;;;6.05;2.00;;;-0.20;99.90;;;;;;5098142;28;20040;-60
2022/01/22 06:50:00;;;;;;;5.25;2.20;;;-0.20;99.90;;;;;;5103467;28;20116;-60
2022/01/22 06:53:26;;;;;;;6.22;2.00;;;-0.20;99.90;;;;;;5107140;28;20042;-60
2022/01/22 06:56:51;;;;;;;3.72;1.70;;;-0.30;99.90;;;;;;5104111;28;20395;-60
2022/01/22 07:00:16;;;;;;;3.85;1.70;;;-0.30;99.90;;;;;;5101212;28;20043;-59
2022/01/22 07:03:42;;;;;;;5.55;1.70;;;-0.30;99.90;;;;;;5108598;28;20556;-60
2022/01/22 07:07:09;;;;;;;2.53;1.50;;;-0.40;99.90;;;;;;5104121;28;20047;-61
2022/01/22 07:10:32;;;;;;;4.05;1.70;;;-0.40;99.90;;;;;;5100378;28;20050;-60
2022/01/22 07:13:58;;;;;;;3.08;1.40;;;-0.50;99.90;;;;;;5108367;28;20036;-60
2022/01/22 07:17:23;;;;;;;7.38;1.98;;;-0.60;99.90;;;;;;5105320;28;20032;-60
2022/01/22 07:20:51;;;;;;;6.22;1.90;;;-0.60;99.90;;;;;;5104562;28;20040;-60
2022/01/22 07:24:23;;;;;;;4.22;1.98;;;-0.60;99.90;;;;;;5091594;28;20399;-60
2022/01/22 07:27:49;;;;;;;7.15;1.35;;;-0.70;99.90;;;;;;5111412;28;20063;-60
2022/01/22 07:31:13;;;;;;;4.07;1.45;;;-0.70;99.90;;;;;;5108188;28;20035;-60
2022/01/22 07:34:39;;;;;;;4.82;1.40;;;-0.80;99.90;;;;;;5110064;28;20046;-61
2022/01/22 07:38:04;;;;;;;7.43;1.95;;;-0.80;99.90;;;;;;5111170;28;20666;-60
2022/01/22 07:41:30;;;;;;;12.50;2.00;;;-0.70;99.90;;;;;;5108062;28;20039;-60
2022/01/22 07:44:55;;;;;;;3.97;1.80;;;-0.60;99.90;;;;;;5102290;28;20039;-60
2022/01/22 07:48:20;;;;;;;3.92;1.83;;;-0.60;99.90;;;;;;5106139;28;20039;-59
2022/01/22 07:51:45;;;;;;;4.63;1.27;;;-0.40;99.90;;;;;;5104267;28;20123;-60
2022/01/22 07:55:11;;;;;;;3.95;1.50;;;-0.10;99.90;;;;;;5108651;28;20487;-60
2022/01/22 07:58:36;;;;;;;5.18;1.75;;;0.00;99.90;;;;;;5111505;28;20084;-60
2022/01/22 08:02:02;;;;;;;10.32;2.17;;;0.20;99.90;;;;;;5104436;28;20024;-60
2022/01/22 08:05:27;;;;;;;11.07;2.40;;;0.30;99.90;;;;;;5103731;28;20448;-59
2022/01/22 08:08:52;;;;;;;6.93;2.70;;;0.60;99.90;;;;;;5091162;28;20055;-60
2022/01/22 08:12:18;;;;;;;5.78;2.17;;;0.90;99.90;;;;;;5106450;28;20093;-58
2022/01/22 08:15:43;;;;;;;6.28;2.05;;;1.00;99.90;;;;;;5103569;28;20031;-60
2022/01/22 08:19:09;;;;;;;5.75;2.00;;;1.10;99.90;;;;;;5092106;28;20097;-60
2022/01/22 08:22:34;;;;;;;6.90;2.33;;;1.20;99.90;;;;;;5109270;28;20040;-60
2022/01/22 08:26:03;;;;;;;3.85;1.45;;;1.50;99.90;;;;;;5103353;28;20548;-58
2022/01/22 08:29:25;;;;;;;6.25;2.00;;;2.40;99.90;;;;;;5101670;28;20043;-60
2022/01/22 08:36:14;;;;;;;5.40;1.50;;;4.90;99.90;;;;;;5090417;28;20561;-62
2022/01/22 08:39:40;;;;;;;3.30;1.40;;;6.30;99.90;;;;;;5099765;28;20134;-61
2022/01/22 08:43:05;;;;;;;3.72;1.30;;;7.90;99.90;;;;;;5099700;28;20038;-60
2022/01/22 08:46:31;;;;;;;2.72;1.48;;;8.80;99.90;;;;;;5107914;28;20048;-61
2022/01/22 08:49:56;;;;;;;2.85;1.38;;;7.80;99.90;;;;;;5102141;28;20411;-62
2022/01/22 08:53:21;;;;;;;3.05;1.00;;;6.50;99.90;;;;;;5106829;28;20046;-61
2022/01/22 08:56:46;;;;;;;2.80;1.10;;;6.70;99.90;;;;;;5106554;28;20027;-62
2022/01/22 09:00:12;;;;;;;7.72;1.23;;;9.00;99.90;;;;;;5104582;28;20131;-62
2022/01/22 09:03:37;;;;;;;2.60;1.23;;;9.80;99.90;;;;;;5107498;28;20035;-61
2022/01/22 09:07:02;;;;;;;2.65;1.05;;;10.50;99.90;;;;;;5107479;28;20502;-61
2022/01/22 09:10:28;;;;;;;3.40;1.20;;;9.20;99.90;;;;;;5098144;28;20070;-61
2022/01/22 09:13:13;;;;;;;1.95;1.20;;;9.20;99.90;;;;;;5102528;28;20047;-62
2022/01/22 09:15:39;;;;;;;5.15;1.40;;;10.40;99.90;;;;;;5107527;28;20036;-60
2022/01/22 09:18:07;;;;;;;3.70;1.73;;;10.80;99.90;;;;;;5109067;28;20557;-61
2022/01/22 09:23:44;;;;;;;2.80;1.30;;;9.50;99.90;;;;;;5088866;28;20110;-61
2022/01/22 09:27:10;;;;;;;2.42;1.33;;;8.60;99.90;;;;;;5102690;28;20036;-61
2022/01/22 09:30:49;;;;;;;2.55;1.42;;;8.40;99.90;;;;;;5102980;28;20050;-62
2022/01/22 09:34:15;;;;;;;1.55;1.30;;;8.00;99.90;;;;;;5101033;28;20066;-62
2022/01/22 09:37:40;;;;;;;3.55;1.30;;;7.40;99.90;;;;;;5108711;28;20035;-62
2022/01/22 09:41:06;;;;;;;3.65;1.50;;;7.10;99.90;;;;;;5102424;28;20073;-62
2022/01/22 09:44:31;;;;;;;3.50;1.85;;;6.60;99.90;;;;;;5099813;28;20043;-62
2022/01/22 09:47:58;;;;;;;7.75;1.85;;;6.10;99.90;;;;;;5108481;28;20035;-61
2022/01/22 09:51:22;;;;;;;4.60;1.92;;;5.60;99.90;;;;;;5104608;28;20809;-63
2022/01/22 09:54:47;;;;;;;6.38;1.95;;;5.30;99.90;;;;;;5091641;28;20027;-62
2022/01/22 09:58:12;;;;;;;4.30;1.83;;;4.90;99.90;;;;;;5088036;28;20038;-63
2022/01/22 10:01:40;;;;;;;2.67;1.55;;;4.70;99.90;;;;;;5102723;28;20035;-63
2022/01/22 10:05:14;;;;;;;5.13;1.27;;;4.50;99.90;;;;;;5093978;28;20040;-64
2022/01/22 10:08:19;;;;;;;5.63;1.45;;;4.40;99.90;;;;;;5102429;28;20736;-62
2022/01/22 10:11:44;;;;;;;6.70;1.60;;;4.60;99.90;;;;;;5088084;28;20491;-63
2022/01/22 10:15:08;;;;;;;8.25;2.22;;;4.70;99.90;;;;;;5100805;28;20027;-63
2022/01/22 10:18:33;;;;;;;4.03;1.75;;;4.90;99.90;;;;;;5102356;28;20044;-63
2022/01/22 10:21:59;;;;;;;3.20;1.30;;;4.80;99.90;;;;;;5104633;28;20044;-63
2022/01/22 10:25:26;;;;;;;2.00;1.25;;;4.60;99.90;;;;;;5100360;28;20044;-63
2022/01/22 10:28:39;;;;;;;8.13;1.65;;;4.50;99.90;;;;;;5101450;28;20058;-62
2022/01/22 10:32:04;;;;;;;3.75;1.20;;;4.50;99.90;;;;;;5087849;28;20032;-67
2022/01/22 10:35:29;;;;;;;7.38;1.77;;;4.50;99.90;;;;;;5100469;28;20440;-65
2022/01/22 10:39:01;;;;;;;3.10;1.67;;;4.30;99.90;;;;;;5102025;28;20062;-67
2022/01/22 10:42:38;;;;;;;2.45;1.20;;;4.10;99.90;;;;;;5101992;28;20039;-68
2022/01/22 10:46:07;;;;;;;9.48;1.98;;;4.10;99.90;;;;;;5105060;28;20051;-67
2022/01/22 10:49:43;;;;;;;3.63;1.30;;;4.20;99.90;;;;;;5098619;28;20039;-65
2022/01/22 10:52:48;;;;;;;2.20;1.10;;;4.20;99.90;;;;;;5089676;28;20036;-71
2022/01/22 10:56:20;;;;;;;3.05;1.60;;;4.20;99.90;;;;;;5107186;28;20035;-67
2022/01/22 10:59:45;;;;;;;4.10;1.40;;;4.30;99.90;;;;;;5107741;28;20032;-64
2022/01/22 11:03:10;;;;;;;2.60;1.10;;;4.50;99.90;;;;;;5091416;28;20055;-65
2022/01/22 11:06:45;;;;;;;3.60;1.30;;;4.60;99.90;;;;;;5091152;28;20044;-66
2022/01/22 11:10:10;;;;;;;3.38;1.60;;;4.70;99.90;;;;;;5107567;28;20019;-65
2022/01/22 11:13:35;;;;;;;2.45;1.25;;;4.60;99.90;;;;;;5105862;28;20615;-65
2022/01/22 11:17:01;;;;;;;4.72;1.63;;;4.60;99.90;;;;;;5105929;28;20035;-67
2022/01/22 11:20:26;;;;;;;2.78;1.40;;;4.40;99.90;;;;;;5107432;28;20109;-67
2022/01/22 11:23:51;;;;;;;2.28;1.02;;;4.40;99.90;;;;;;5105379;28;20092;-61
2022/01/22 11:27:17;;;;;;;2.53;1.20;;;4.40;99.90;;;;;;5105504;28;20039;-63
2022/01/22 11:30:02;;;;;;;3.10;1.30;;;4.50;99.90;;;;;;5105014;28;20449;-63
2022/01/22 11:33:28;;;;;;;3.53;1.20;;;4.50;99.90;;;;;;5090550;28;20032;-62
2022/01/22 11:36:33;;;;;;;1.42;0.82;;;4.60;99.90;;;;;;5105337;28;20156;-62
2022/01/22 11:39:58;;;;;;;3.08;1.08;;;4.50;99.90;;;;;;5095489;28;20030;-62
2022/01/22 11:43:43;;;;;;;5.38;1.13;;;4.50;99.90;;;;;;5091175;28;20126;-62
2022/01/22 11:47:04;;;;;;;1.15;0.80;;;4.30;99.90;;;;;;5104966;28;20046;-62
2022/01/22 11:50:48;;;;;;;1.73;0.90;;;4.00;99.90;;;;;;5105907;28;20043;-62
2022/01/22 11:54:14;;;;;;;2.55;0.90;;;3.70;99.90;;;;;;5106696;28;20032;-62
2022/01/22 11:57:39;;;;;;;1.70;1.10;;;3.80;99.90;;;;;;5096284;28;20761;-63
2022/01/22 12:01:04;;;;;;;2.72;1.20;;;4.00;99.90;;;;;;5104512;28;20035;-64
2022/01/22 12:04:36;;;;;;;2.65;1.38;;;4.20;99.90;;;;;;5106161;28;20084;-63
2022/01/22 12:08:01;;;;;;;2.17;0.80;;;4.30;99.90;;;;;;5089128;28;20071;-64
2022/01/22 12:15:01;;;;;;;1.30;0.85;;;4.30;99.90;;;;;;5061481;28;20491;-66
2022/01/22 12:17:58;;;;;;;1.20;0.60;;;4.20;99.90;;;;;;5103924;28;20122;-66
2022/01/22 12:23:31;;;;;;;4.07;0.73;;;4.40;99.90;;;;;;5096377;28;20456;-65
2022/01/22 12:26:39;;;;;;;1.90;0.82;;;4.50;99.90;;;;;;5087576;28;20478;-66
2022/01/22 12:29:51;;;;;;;2.17;0.93;;;4.60;99.90;;;;;;5102295;28;20459;-67
2022/01/22 12:33:25;;;;;;;1.13;0.77;;;4.60;99.90;;;;;;5099635;28;20032;-68
2022/01/22 12:36:57;;;;;;;2.10;0.80;;;4.70;99.90;;;;;;5101809;28;20069;-68
2022/01/22 12:40:22;;;;;;;3.83;1.00;;;4.90;99.90;;;;;;5104507;28;20035;-66
2022/01/22 12:43:47;;;;;;;5.47;2.25;;;4.90;99.90;;;;;;5089587;28;20486;-67
2022/01/22 12:47:13;;;;;;;4.53;1.30;;;4.90;99.90;;;;;;5102501;28;20043;-64
2022/01/22 12:50:44;;;;;;;2.50;1.42;;;4.90;99.90;;;;;;5104932;28;20053;-64
2022/01/22 12:54:10;;;;;;;2.10;1.20;;;4.70;99.90;;;;;;5091731;28;20035;-64
2022/01/22 12:57:35;;;;;;;2.72;1.70;;;4.70;99.90;;;;;;5101105;28;20398;-63
2022/01/22 13:01:00;;;;;;;3.78;1.30;;;4.50;99.90;;;;;;5106643;28;20039;-64
2022/01/22 13:04:32;;;;;;;3.70;1.30;;;4.50;99.90;;;;;;5100116;28;20131;-62
2022/01/22 13:08:00;;;;;;;3.35;1.50;;;4.50;99.90;;;;;;5085021;28;20077;-63
2022/01/22 13:11:23;;;;;;;2.25;1.35;;;4.40;99.90;;;;;;5106048;28;20051;-63
2022/01/22 13:14:48;;;;;;;2.67;1.38;;;4.30;99.90;;;;;;5099814;28;20663;-63
2022/01/22 13:18:16;;;;;;;4.78;2.20;;;4.30;99.90;;;;;;5098936;28;20643;-64
2022/01/22 13:21:25;;;;;;;;;;;4.20;99.90;;;;;;5105526;28;20047;-64
2022/01/22 13:24:50;;;;;;;3.05;1.75;;;4.10;99.90;;;;;;5100562;28;19924;-62
2022/01/22 13:28:18;;;;;;;5.13;1.67;;;3.90;99.90;;;;;;5099750;28;20579;-65
2022/01/22 13:31:50;;;;;;;2.03;1.55;;;3.90;99.90;;;;;;5106353;28;20104;-64
2022/01/22 13:35:34;;;;;;;6.40;2.22;;;3.90;99.90;;;;;;5104059;28;20089;-64
2022/01/22 13:49:36;;;;;;;3.17;1.77;;;3.80;99.90;;;;;;5101055;28;20074;-63
2022/01/22 13:53:02;;;;;;;3.60;1.30;;;3.80;99.90;;;;;;5098433;28;20036;-63
2022/01/22 13:56:27;;;;;;;2.65;1.50;;;3.80;99.90;;;;;;5100171;28;20717;-63
2022/01/22 13:59:36;;;;;;;5.47;1.67;;;3.80;99.90;;;;;;5100977;28;20100;-62
2022/01/22 14:03:21;;;;;;;3.83;1.45;;;3.80;99.90;;;;;;5103778;28;20040;-62
2022/01/22 14:06:33;;;;;;;5.80;1.98;;;3.80;99.90;;;;;;5103527;28;20072;-62
2022/01/22 14:09:58;;;;;;;5.55;2.00;;;3.70;99.90;;;;;;5096000;28;20037;-63
2022/01/22 14:12:47;;;;;;;5.80;2.50;;;3.60;99.90;;;;;;5101776;28;20035;-63
2022/01/22 14:16:12;;;;;;;5.30;2.40;;;3.50;99.90;;;;;;5106386;28;20055;-62
2022/01/22 14:19:17;;;;;;;;;;;3.40;99.90;;;;;;5101109;28;20088;-62
2022/01/22 14:22:43;;;;;;;3.35;2.00;;;3.20;99.90;;;;;;5107937;28;20435;-62
2022/01/22 14:26:11;;;;;;;4.60;1.58;;;3.00;99.90;;;;;;5103144;28;20530;-62
2022/01/22 14:29:20;;;;;;;;;;;2.90;99.90;;;;;;5107797;28;20040;-62
2022/01/22 14:32:45;;;;;;;2.38;1.23;;;2.70;99.90;;;;;;5094522;28;20010;-63
2022/01/22 14:36:19;;;;;;;4.43;1.40;;;2.60;99.90;;;;;;5109150;28;20063;-62
2022/01/22 14:46:40;;;;;;;3.08;1.25;;;2.50;99.90;;;;;;5094538;28;20062;-63
2022/01/22 14:50:05;;;;;;;1.88;1.20;;;2.50;99.90;;;;;;5110423;28;20860;-63
2022/01/22 14:53:34;;;;;;;6.15;1.40;;;2.50;99.90;;;;;;5095215;28;20043;-64
2022/01/22 14:56:59;;;;;;;3.45;1.77;;;2.50;99.90;;;;;;5107332;28;20031;-63
2022/01/22 15:00:24;;;;;;;5.88;1.88;;;2.50;99.90;;;;;;5111684;28;20064;-63
2022/01/22 15:03:50;;;;;;;1.83;1.20;;;2.50;99.90;;;;;;5107768;28;20649;-64
2022/01/22 15:07:15;;;;;;;2.72;1.27;;;2.50;99.90;;;;;;5109185;28;20043;-64
2022/01/22 15:10:40;;;;;;;6.22;2.92;;;2.50;99.90;;;;;;5094018;28;20039;-63
2022/01/22 15:13:26;;;;;;;3.88;2.38;;;2.50;99.90;;;;;;5107485;28;20538;-65
2022/01/22 15:15:58;;;;;;;4.30;2.20;;;2.50;99.90;;;;;;5103039;28;20059;-66
2022/01/22 15:21:09;;;;;;;5.10;2.00;;;2.50;99.90;;;;;;5112636;28;20100;-64
2022/01/22 15:23:35;;;;;;;5.35;1.90;;;2.50;99.90;;;;;;5104916;28;20036;-64
2022/01/22 15:26:01;;;;;;;4.15;2.33;;;2.50;99.90;;;;;;5111020;28;20024;-64
2022/01/22 15:28:32;;;;;;;5.05;2.08;;;2.50;99.90;;;;;;5101201;28;20019;-65
2022/01/22 15:30:58;;;;;;;3.15;1.85;;;2.50;99.90;;;;;;5102609;28;20043;-67
2022/01/22 15:33:36;;;;;;;6.40;2.13;;;2.50;99.90;;;;;;5110109;28;20633;-65
2022/01/22 15:36:02;;;;;;;5.05;2.00;;;2.50;99.90;;;;;;5110693;28;20479;-65
2022/01/22 15:38:28;;;;;;;5.20;2.30;;;2.50;99.90;;;;;;5106655;28;20035;-64
2022/01/22 15:40:53;;;;;;;8.10;3.05;;;2.50;99.90;;;;;;5108778;28;20024;-65
2022/01/22 15:43:19;;;;;;;6.57;2.40;;;2.50;99.90;;;;;;5085735;28;20035;-65
2022/01/22 15:45:45;;;;;;;3.95;2.25;;;2.50;99.90;;;;;;5107724;28;20039;-66
2022/01/22 15:48:11;;;;;;;9.82;3.03;;;2.50;99.90;;;;;;5097928;28;20076;-64
2022/01/22 15:50:39;;;;;;;6.30;3.03;;;2.50;99.90;;;;;;5102580;28;20028;-64
2022/01/22 15:53:04;;;;;;;7.18;3.20;;;2.50;99.90;;;;;;5090897;28;20118;-64
2022/01/22 15:55:30;;;;;;;5.70;2.75;;;2.50;99.90;;;;;;5107721;28;20115;-64
2022/01/22 15:57:56;;;;;;;6.65;3.00;;;2.50;99.90;;;;;;5092452;28;20032;-64
2022/01/22 16:00:22;;;;;;;9.95;3.35;;;2.40;99.90;;;;;;5107139;28;20027;-64
2022/01/22 16:02:48;;;;;;;4.97;2.70;;;2.40;99.90;;;;;;5093298;28;20038;-63
2022/01/22 16:05:13;;;;;;;5.75;2.88;;;2.40;99.90;;;;;;5105558;28;20039;-64
2022/01/22 16:07:39;;;;;;;4.85;2.58;;;2.40;99.90;;;;;;5095550;28;20680;-63
2022/01/22 16:10:06;;;;;;;6.70;1.67;;;2.40;99.90;;;;;;5108054;28;20058;-64
2022/01/22 16:12:32;;;;;;;5.30;2.47;;;2.40;99.90;;;;;;5105679;28;20042;-64
2022/01/22 16:14:58;;;;;;;5.18;2.45;;;2.30;99.90;;;;;;5107451;28;20107;-64
2022/01/22 16:17:27;;;;;;;2.45;2.05;;;2.30;99.90;;;;;;5099283;28;20072;-63
2022/01/22 16:19:53;;;;;;;5.57;2.78;;;2.30;99.90;;;;;;5108782;28;20043;-63
2022/01/22 16:22:22;;;;;;;8.68;2.88;;;2.20;99.90;;;;;;5107832;28;20031;-65
2022/01/22 16:24:48;;;;;;;4.38;2.00;;;2.20;99.90;;;;;;5110064;28;20031;-64
2022/01/22 16:27:13;;;;;;;3.88;2.53;;;2.20;99.90;;;;;;5107887;28;20084;-63
2022/01/22 16:29:39;;;;;;;6.20;3.10;;;2.20;99.90;;;;;;5109946;28;20043;-63
2022/01/22 16:32:05;;;;;;;4.35;2.55;;;2.10;99.90;;;;;;5107890;28;20023;-64
2022/01/22 16:34:30;;;;;;;8.85;3.35;;;2.10;99.90;;;;;;5109894;28;20024;-66
2022/01/22 16:36:56;;;;;;;6.57;3.67;;;2.10;99.90;;;;;;5107949;28;20042;-65
2022/01/22 16:39:22;;;;;;;9.70;4.40;;;2.10;99.90;;;;;;5109770;28;20651;-64
2022/01/22 16:41:52;;;;;;;9.70;4.93;;;2.00;99.90;;;;;;5107821;28;20411;-63
2022/01/22 16:44:30;;;;;;;23.70;5.43;;;2.00;99.90;;;;;;5106359;28;20503;-64
2022/01/22 16:55:55;;;;;;;6.10;3.63;;;2.00;99.90;;;;;;5089869;28;20129;-63
2022/01/22 16:57:59;;;;;;;7.53;3.63;;;2.00;99.90;;;;;;5073925;28;20039;-64
2022/01/22 17:00:30;;;;;;;8.95;4.28;;;1.90;99.90;;;;;;5109088;28;20027;-65
2022/01/22 17:02:56;;;;;;;14.85;6.70;;;1.90;99.90;;;;;;5106068;28;20039;-64
2022/01/22 17:05:22;;;;;;;13.57;6.55;;;1.80;99.90;;;;;;5109310;28;20031;-63
2022/01/22 17:10:21;;;;;;;11.93;5.78;;;1.60;99.90;;;;;;5108735;28;20108;-64
2022/01/22 17:15:32;;;;;;;11.98;5.30;;;1.40;99.90;;;;;;5089094;28;20035;-62
2022/01/22 17:17:58;;;;;;;10.52;4.47;;;1.40;99.90;;;;;;5106013;28;20032;-65
2022/01/22 17:20:24;;;;;;;13.98;6.47;;;1.30;99.90;;;;;;5108634;28;20154;-63
2022/01/22 17:23:29;;;;;;;13.77;5.60;;;1.20;99.90;;;;;;5107171;28;20112;-63
2022/01/22 17:26:54;;;;;;;13.77;6.20;;;1.20;99.90;;;;;;5104779;28;20070;-64
2022/01/22 17:30:20;;;;;;;38.97;12.23;;;1.20;99.90;;;;;;5093882;28;20774;-64
2022/01/22 17:33:45;;;;;;;49.17;16.77;;;1.00;99.90;;;;;;5106899;28;20040;-64
2022/01/22 17:37:10;;;;;;;44.10;16.60;;;1.00;99.90;;;;;;5101286;28;20053;-63
2022/01/22 17:40:37;;;;;;;36.70;14.13;;;1.00;99.90;;;;;;5105575;28;20035;-64
2022/01/22 17:44:01;;;;;;;31.00;11.57;;;1.00;99.90;;;;;;5101565;28;20040;-63
2022/01/22 17:47:26;;;;;;;29.23;11.02;;;1.10;99.90;;;;;;5101067;28;20031;-62
2022/01/22 17:50:52;;;;;;;27.02;10.23;;;1.10;99.90;;;;;;5102810;28;20058;-64
2022/01/22 17:54:17;;;;;;;23.15;11.48;;;1.10;99.90;;;;;;5102378;28;20028;-64